createdAt,value
2023-06-18T00:02:07.533Z,97553.56
2023-06-18T00:04:34.713Z,97546.06
2023-06-18T00:07:04.266Z,97542.59
2023-06-18T00:09:32.136Z,97550.00
2023-06-18T00:11:59.719Z,97548.28
2023-06-18T00:14:27.429Z,97549.28
2023-06-18T00:16:54.954Z,97545.66
2023-06-18T00:19:22.601Z,97543.22
2023-06-18T00:21:49.812Z,97548.84
2023-06-18T00:24:17.701Z,97539.88
2023-06-18T00:26:45.257Z,97542.97
2023-06-18T00:29:12.977Z,97558.72
2023-06-18T00:31:40.368Z,97556.88
2023-06-18T00:34:08.735Z,97549.91
2023-06-18T00:36:40.095Z,97544.31
2023-06-18T00:39:09.034Z,97550.31
2023-06-18T00:41:36.969Z,97548.38
2023-06-18T00:44:04.393Z,97546.25
2023-06-18T00:46:32.240Z,97545.19
2023-06-18T00:49:00.055Z,97548.00
2023-06-18T00:51:27.762Z,97545.16
2023-06-18T00:53:57.246Z,97550.34
2023-06-18T00:56:26.102Z,97543.56
2023-06-18T00:58:53.990Z,97540.06
2023-06-18T01:01:21.826Z,97538.78
2023-06-18T01:03:50.587Z,97533.19
2023-06-18T01:06:19.347Z,97529.19
2023-06-18T01:08:50.528Z,97530.31
2023-06-18T01:11:21.089Z,97529.06
2023-06-18T01:13:49.381Z,97530.38
2023-06-18T01:16:17.221Z,97527.53
2023-06-18T01:18:48.067Z,97518.41
2023-06-18T01:21:19.519Z,97517.03
2023-06-18T01:23:54.253Z,97523.38
2023-06-18T01:26:21.880Z,97528.16
2023-06-18T01:28:52.851Z,97525.44
2023-06-18T01:31:25.098Z,97523.00
2023-06-18T01:33:55.591Z,97525.78
2023-06-18T01:36:35.390Z,97524.69
2023-06-18T01:39:32.094Z,97515.91
2023-06-18T01:42:08.550Z,97503.28
2023-06-18T01:44:37.361Z,97507.78
2023-06-18T01:47:05.109Z,97502.59
2023-06-18T01:49:32.679Z,97509.47
2023-06-18T01:52:01.249Z,97513.50
2023-06-18T01:54:28.610Z,97498.16
2023-06-18T01:56:56.377Z,97500.06
2023-06-18T01:59:23.565Z,97502.78
2023-06-18T02:01:51.302Z,97506.63
2023-06-18T02:04:19.111Z,97511.75
2023-06-18T02:06:46.862Z,97510.72
2023-06-18T02:09:14.897Z,97501.28
2023-06-18T02:11:42.684Z,97508.31
2023-06-18T02:14:11.515Z,97491.88
2023-06-18T02:16:39.198Z,97491.25
2023-06-18T02:19:07.561Z,97493.75
2023-06-18T02:21:35.350Z,97479.88
2023-06-18T02:24:02.678Z,97493.25
2023-06-18T02:26:30.154Z,97489.41
2023-06-18T02:28:57.864Z,97484.03
2023-06-18T02:31:25.724Z,97479.56
2023-06-18T02:33:53.537Z,97476.56
2023-06-18T02:36:21.810Z,97474.47
2023-06-18T02:38:49.541Z,97475.78
2023-06-18T02:41:17.572Z,97463.97
2023-06-18T02:43:45.364Z,97463.78
2023-06-18T02:46:12.811Z,97460.06
2023-06-18T02:48:40.513Z,97461.56
2023-06-18T02:51:07.871Z,97458.59
2023-06-18T02:53:35.666Z,97457.03
2023-06-18T02:56:03.422Z,97457.47
2023-06-18T02:58:31.289Z,97461.84
2023-06-18T03:01:03.084Z,97459.63
2023-06-18T03:03:37.240Z,97459.03
2023-06-18T03:06:05.177Z,97454.75
2023-06-18T03:08:32.702Z,97457.13
2023-06-18T03:11:00.418Z,97454.50
2023-06-18T03:13:28.391Z,97446.50
2023-06-18T03:15:57.005Z,97456.81
2023-06-18T03:18:27.011Z,97453.53
2023-06-18T03:20:55.219Z,97449.53
2023-06-18T03:23:23.747Z,97439.00
2023-06-18T03:25:51.995Z,97443.31
2023-06-18T03:28:25.173Z,97431.66
2023-06-18T03:30:53.167Z,97427.63
2023-06-18T03:33:22.201Z,97435.22
2023-06-18T03:35:51.179Z,97434.16
2023-06-18T03:38:19.206Z,97427.78
2023-06-18T03:40:47.568Z,97426.66
2023-06-18T03:43:16.328Z,97421.19
2023-06-18T03:45:46.251Z,97415.84
2023-06-18T03:48:15.053Z,97409.91
2023-06-18T03:50:45.414Z,97407.22
2023-06-18T03:53:13.540Z,97406.34
2023-06-18T03:55:42.694Z,97391.44
2023-06-18T03:58:25.221Z,97393.88
2023-06-18T04:00:52.913Z,97401.03
2023-06-18T04:03:21.325Z,97407.03
2023-06-18T04:05:48.692Z,97398.03
2023-06-18T04:08:17.825Z,97393.88
2023-06-18T04:10:46.693Z,97397.06
2023-06-18T04:13:16.203Z,97392.06
2023-06-18T04:15:44.967Z,97398.81
2023-06-18T04:18:14.256Z,97387.72
2023-06-18T04:20:41.734Z,97387.75
2023-06-18T04:23:10.524Z,97384.94
2023-06-18T04:25:39.925Z,97385.16
2023-06-18T04:28:07.525Z,97378.09
2023-06-18T04:30:35.589Z,97388.38
2023-06-18T04:33:05.216Z,97384.25
2023-06-18T04:35:33.245Z,97380.31
2023-06-18T04:38:00.577Z,97381.13
2023-06-18T04:40:28.609Z,97371.19
2023-06-18T04:42:56.226Z,97367.91
2023-06-18T04:45:30.326Z,97365.00
2023-06-18T04:47:57.880Z,97373.28
2023-06-18T04:50:26.458Z,97369.38
2023-06-18T04:52:53.726Z,97367.09
2023-06-18T04:55:23.946Z,97354.91
2023-06-18T04:57:53.650Z,97363.25
2023-06-18T05:00:22.007Z,97369.09
2023-06-18T05:02:52.649Z,97370.34
2023-06-18T05:05:20.547Z,97361.00
2023-06-18T05:07:51.808Z,97366.13
2023-06-18T05:10:21.589Z,97362.19
2023-06-18T05:12:50.972Z,97361.13
2023-06-18T05:15:18.815Z,97370.56
2023-06-18T05:17:47.974Z,97347.53
2023-06-18T05:20:18.568Z,97355.56
2023-06-18T05:22:47.246Z,97348.00
2023-06-18T05:25:16.504Z,97353.47
2023-06-18T05:27:44.226Z,97344.66
2023-06-18T05:30:12.465Z,97344.59
2023-06-18T05:32:44.695Z,97348.09
2023-06-18T05:35:17.288Z,97340.34
2023-06-18T05:37:54.932Z,97346.47
2023-06-18T05:40:22.923Z,97350.59
2023-06-18T05:42:51.265Z,97354.84
2023-06-18T05:45:19.981Z,97338.84
2023-06-18T05:47:49.836Z,97340.28
2023-06-18T05:50:28.542Z,97344.69
2023-06-18T05:52:56.056Z,97323.91
2023-06-18T05:55:23.898Z,97341.28
2023-06-18T05:57:51.968Z,97335.66
2023-06-18T06:00:19.884Z,97334.91
2023-06-18T06:02:52.393Z,97334.69
2023-06-18T06:05:21.825Z,97327.84
2023-06-18T06:07:50.703Z,97321.53
2023-06-18T06:10:20.581Z,97318.09
2023-06-18T06:12:49.596Z,97310.69
2023-06-18T06:15:18.113Z,97314.09
2023-06-18T06:17:45.709Z,97315.38
2023-06-18T06:20:14.711Z,97315.97
2023-06-18T06:22:42.781Z,97308.91
2023-06-18T06:25:10.234Z,97312.06
2023-06-18T06:27:38.927Z,97309.22
2023-06-18T06:30:10.335Z,97312.59
2023-06-18T06:32:37.722Z,97305.25
2023-06-18T06:35:06.095Z,97300.19
2023-06-18T06:37:34.404Z,97301.78
2023-06-18T06:40:05.062Z,97302.19
2023-06-18T06:42:34.296Z,97295.47
2023-06-18T06:45:20.335Z,97295.16
2023-06-18T06:48:11.193Z,97292.66
2023-06-18T06:50:58.096Z,97292.09
2023-06-18T06:53:29.489Z,97280.53
2023-06-18T06:55:58.761Z,97281.63
2023-06-18T06:58:28.783Z,97265.47
2023-06-18T07:00:56.630Z,97283.47
2023-06-18T07:03:24.304Z,97277.19
2023-06-18T07:05:51.949Z,97281.56
2023-06-18T07:08:19.409Z,97277.91
2023-06-18T07:10:47.065Z,97274.38
2023-06-18T07:13:14.461Z,97278.72
2023-06-18T07:15:42.014Z,97278.56
2023-06-18T07:18:09.827Z,97273.34
2023-06-18T07:20:38.029Z,97268.00
2023-06-18T07:23:06.392Z,97252.63
2023-06-18T07:25:34.014Z,97266.34
2023-06-18T07:28:02.054Z,97264.69
2023-06-18T07:30:29.955Z,97262.50
2023-06-18T07:32:57.369Z,97258.28
2023-06-18T07:35:25.141Z,97253.59
2023-06-18T07:37:53.167Z,97245.84
2023-06-18T07:40:21.886Z,97251.81
2023-06-18T07:42:49.605Z,97252.50
2023-06-18T07:45:17.300Z,97251.22
2023-06-18T07:47:44.719Z,97250.72
2023-06-18T07:50:12.451Z,97237.78
2023-06-18T07:52:40.093Z,97235.88
2023-06-18T07:55:07.835Z,97237.94
2023-06-18T07:57:35.638Z,97242.97
2023-06-18T08:00:03.540Z,97231.28
2023-06-18T08:02:39.322Z,97238.91
2023-06-18T08:05:08.511Z,97233.81
2023-06-18T08:07:36.708Z,97237.63
2023-06-18T08:10:04.664Z,97224.88
2023-06-18T08:12:32.102Z,97233.47
2023-06-18T08:14:59.563Z,97243.53
2023-06-18T08:17:28.981Z,97234.94
2023-06-18T08:19:56.846Z,97227.22
2023-06-18T08:22:24.648Z,97222.66
2023-06-18T08:24:55.344Z,97228.47
2023-06-18T08:27:22.914Z,97203.09
2023-06-18T08:29:50.819Z,97209.97
2023-06-18T08:32:18.717Z,97221.75
2023-06-18T08:34:47.389Z,97219.97
2023-06-18T08:37:14.881Z,97202.06
2023-06-18T08:39:45.854Z,97216.41
2023-06-18T08:42:19.016Z,97210.81
2023-06-18T08:44:49.806Z,97208.03
2023-06-18T08:47:19.106Z,97212.00
2023-06-18T08:49:46.945Z,97219.19
2023-06-18T08:52:15.298Z,97215.59
2023-06-18T08:54:47.429Z,97221.22
2023-06-18T08:57:33.085Z,97211.25
2023-06-18T09:00:01.345Z,97215.63
2023-06-18T09:02:29.300Z,97208.81
2023-06-18T09:04:57.023Z,97216.34
2023-06-18T09:07:25.901Z,97214.25
2023-06-18T09:09:54.526Z,97216.94
2023-06-18T09:12:22.614Z,97208.41
2023-06-18T09:14:50.641Z,97208.09
2023-06-18T09:17:18.413Z,97206.66
2023-06-18T09:19:47.762Z,97219.69
2023-06-18T09:22:16.405Z,97213.16
2023-06-18T09:24:47.816Z,97211.78
2023-06-18T09:27:15.297Z,97217.25
2023-06-18T09:29:42.936Z,97201.63
2023-06-18T09:32:14.943Z,97189.34
2023-06-18T09:34:43.267Z,97199.47
2023-06-18T09:37:14.218Z,97180.59
2023-06-18T09:39:42.070Z,97184.91
2023-06-18T09:42:12.042Z,97176.81
2023-06-18T09:44:39.731Z,97173.78
2023-06-18T09:47:13.516Z,97162.72
2023-06-18T09:50:00.085Z,97156.81
2023-06-18T09:52:28.592Z,97166.41
2023-06-18T09:54:57.767Z,97163.59
2023-06-18T09:57:25.665Z,97154.84
2023-06-18T10:00:13.507Z,97161.22
2023-06-18T10:02:40.906Z,97162.00
2023-06-18T10:05:08.861Z,97161.59
2023-06-18T10:07:37.459Z,97152.06
2023-06-18T10:10:06.035Z,97156.81
2023-06-18T10:12:33.877Z,97154.44
2023-06-18T10:15:01.709Z,97153.25
2023-06-18T10:17:32.679Z,97144.50
2023-06-18T10:20:07.970Z,97134.53
2023-06-18T10:22:42.744Z,97136.06
2023-06-18T10:25:10.604Z,97138.03
2023-06-18T10:27:38.336Z,97144.28
2023-06-18T10:30:06.539Z,97132.66
2023-06-18T10:32:34.416Z,97136.09
2023-06-18T10:35:04.373Z,97128.44
2023-06-18T10:37:32.591Z,97143.53
2023-06-18T10:40:00.065Z,97133.59
2023-06-18T10:42:28.596Z,97145.91
2023-06-18T10:44:59.153Z,97139.53
2023-06-18T10:47:28.000Z,97132.69
2023-06-18T10:50:01.833Z,97131.09
2023-06-18T10:52:40.140Z,97121.09
2023-06-18T10:55:14.825Z,97123.41
2023-06-18T10:57:43.691Z,97130.56
2023-06-18T11:00:35.350Z,97147.25
2023-06-18T11:03:04.950Z,97130.56
2023-06-18T11:05:35.694Z,97140.88
2023-06-18T11:08:10.656Z,97129.72
2023-06-18T11:10:39.667Z,97133.34
2023-06-18T11:13:07.897Z,97137.78
2023-06-18T11:15:36.560Z,97137.91
2023-06-18T11:18:04.459Z,97124.44
2023-06-18T11:20:35.924Z,97122.06
2023-06-18T11:23:04.721Z,97119.69
2023-06-18T11:25:32.414Z,97128.84
2023-06-18T11:28:02.740Z,97121.22
2023-06-18T11:30:33.060Z,97127.25
2023-06-18T11:33:01.115Z,97109.38
2023-06-18T11:35:29.954Z,97121.81
2023-06-18T11:37:57.278Z,97120.75
2023-06-18T11:40:24.648Z,97125.19
2023-06-18T11:42:52.642Z,97110.06
2023-06-18T11:45:21.488Z,97126.38
2023-06-18T11:47:52.924Z,97115.28
2023-06-18T11:50:23.672Z,97126.84
2023-06-18T11:52:51.217Z,97131.22
2023-06-18T11:55:19.330Z,97127.19
2023-06-18T11:57:47.431Z,97135.13
2023-06-18T12:00:14.850Z,97129.09
2023-06-18T12:02:42.647Z,97129.88
2023-06-18T12:05:11.740Z,97123.06
2023-06-18T12:07:43.725Z,97116.22
2023-06-18T12:10:12.767Z,97134.91
2023-06-18T12:12:52.853Z,97126.56
2023-06-18T12:15:26.298Z,97132.50
2023-06-18T12:18:01.514Z,97128.13
2023-06-18T12:20:29.497Z,97128.06
2023-06-18T12:22:58.468Z,97121.31
2023-06-18T12:25:28.541Z,97131.22
2023-06-18T12:27:57.612Z,97132.03
2023-06-18T12:30:38.193Z,97132.75
2023-06-18T12:33:13.066Z,97124.78
2023-06-18T12:35:47.262Z,97139.84
2023-06-18T12:38:15.661Z,97128.22
2023-06-18T12:41:02.567Z,97141.28
2023-06-18T12:43:30.902Z,97144.81
2023-06-18T12:45:59.132Z,97145.53
2023-06-18T12:48:27.897Z,97137.44
2023-06-18T12:50:56.113Z,97142.97
2023-06-18T12:53:27.943Z,97154.06
2023-06-18T12:56:00.049Z,97149.97
2023-06-18T12:58:28.862Z,97143.47
2023-06-18T13:00:58.097Z,97151.34
2023-06-18T13:03:27.347Z,97144.44
2023-06-18T13:05:55.611Z,97155.88
2023-06-18T13:08:23.646Z,97156.94
2023-06-18T13:10:53.127Z,97147.63
2023-06-18T13:13:20.965Z,97152.94
2023-06-18T13:15:49.296Z,97144.84
2023-06-18T13:18:19.877Z,97144.34
2023-06-18T13:20:48.349Z,97145.50
2023-06-18T13:23:16.325Z,97153.72
2023-06-18T13:25:44.471Z,97153.13
2023-06-18T13:28:12.631Z,97156.66
2023-06-18T13:30:39.868Z,97159.31
2023-06-18T13:33:07.501Z,97155.16
2023-06-18T13:35:35.302Z,97155.06
2023-06-18T13:38:02.945Z,97160.06
2023-06-18T13:40:30.897Z,97157.09
2023-06-18T13:42:59.714Z,97155.81
2023-06-18T13:45:27.889Z,97161.78
2023-06-18T13:47:55.991Z,97161.72
2023-06-18T13:50:24.167Z,97156.94
2023-06-18T13:52:52.127Z,97155.97
2023-06-18T13:55:19.783Z,97162.03
2023-06-18T13:57:47.234Z,97170.28
2023-06-18T14:00:15.080Z,97179.69
2023-06-18T14:02:42.777Z,97179.91
2023-06-18T14:05:10.440Z,97186.56
2023-06-18T14:07:38.915Z,97189.09
2023-06-18T14:10:07.497Z,97189.72
2023-06-18T14:12:36.538Z,97198.72
2023-06-18T14:15:04.693Z,97193.41
2023-06-18T14:17:32.378Z,97194.22
2023-06-18T14:20:00.393Z,97187.38
2023-06-18T14:22:28.484Z,97218.25
2023-06-18T14:24:59.113Z,97237.03
2023-06-18T14:27:26.948Z,97241.47
2023-06-18T14:29:54.361Z,97289.03
2023-06-18T14:32:23.661Z,97311.69
2023-06-18T14:34:51.910Z,97372.75
2023-06-18T14:37:24.883Z,97371.84
2023-06-18T14:39:53.254Z,97383.00
2023-06-18T14:42:21.276Z,97369.84
2023-06-18T14:44:54.451Z,97365.72
2023-06-18T14:47:23.043Z,97351.41
2023-06-18T14:49:56.011Z,97346.63
2023-06-18T14:52:23.629Z,97333.28
2023-06-18T14:54:51.731Z,97346.34
2023-06-18T14:57:19.737Z,97343.03
2023-06-18T14:59:48.718Z,97330.75
2023-06-18T15:02:28.175Z,97329.75
2023-06-18T15:04:58.418Z,97321.69
2023-06-18T15:07:26.918Z,97326.63
2023-06-18T15:09:54.966Z,97320.38
2023-06-18T15:12:22.613Z,97322.16
2023-06-18T15:14:49.799Z,97316.41
2023-06-18T15:17:17.595Z,97316.41
2023-06-18T15:19:45.335Z,97335.50
2023-06-18T15:22:13.017Z,97345.53
2023-06-18T15:24:40.590Z,97330.97
2023-06-18T15:27:08.314Z,97339.13
2023-06-18T15:29:36.499Z,97339.97
2023-06-18T15:32:04.470Z,97332.97
2023-06-18T15:34:32.073Z,97334.88
2023-06-18T15:37:00.619Z,97350.50
2023-06-18T15:39:28.254Z,97349.84
2023-06-18T15:41:55.923Z,97360.66
2023-06-18T15:44:23.602Z,97363.66
2023-06-18T15:46:51.249Z,97366.75
2023-06-18T15:49:19.161Z,97362.03
2023-06-18T15:51:46.607Z,97349.69
2023-06-18T15:54:14.836Z,97319.25
2023-06-18T15:56:43.764Z,97316.94
2023-06-18T15:59:11.768Z,97299.09
2023-06-18T16:01:39.868Z,97299.16
2023-06-18T16:04:07.838Z,97273.03
2023-06-18T16:06:38.873Z,97267.66
2023-06-18T16:09:06.216Z,97263.19
2023-06-18T16:11:34.093Z,97259.97
2023-06-18T16:14:01.932Z,97242.59
2023-06-18T16:16:29.292Z,97250.81
2023-06-18T16:19:02.825Z,97242.44
2023-06-18T16:21:31.846Z,97255.56
2023-06-18T16:23:59.631Z,97257.19
2023-06-18T16:26:30.108Z,97247.47
2023-06-18T16:28:57.602Z,97243.50
2023-06-18T16:31:26.327Z,97228.97
2023-06-18T16:33:54.329Z,97245.75
2023-06-18T16:36:22.353Z,97241.16
2023-06-18T16:38:50.198Z,97251.03
2023-06-18T16:41:17.789Z,97235.09
2023-06-18T16:43:45.866Z,97266.25
2023-06-18T16:46:13.926Z,97259.84
2023-06-18T16:48:42.097Z,97279.69
2023-06-18T16:51:11.021Z,97290.22
2023-06-18T16:53:38.783Z,97307.22
2023-06-18T16:56:06.253Z,97322.75
2023-06-18T16:58:34.737Z,97320.34
2023-06-18T17:01:02.514Z,97329.88
2023-06-18T17:03:30.236Z,97323.69
2023-06-18T17:05:59.036Z,97319.00
2023-06-18T17:08:26.527Z,97318.75
2023-06-18T17:10:54.374Z,97316.00
2023-06-18T17:13:22.344Z,97309.84
2023-06-18T17:15:53.109Z,97314.56
2023-06-18T17:18:20.858Z,97298.38
2023-06-18T17:20:48.443Z,97282.56
2023-06-18T17:23:16.873Z,97284.72
2023-06-18T17:25:44.566Z,97273.50
2023-06-18T17:28:12.378Z,97266.06
2023-06-18T17:30:40.543Z,97281.28
2023-06-18T17:33:08.741Z,97276.75
2023-06-18T17:35:37.814Z,97278.19
2023-06-18T17:38:07.804Z,97282.44
2023-06-18T17:40:35.730Z,97281.41
2023-06-18T17:43:03.711Z,97281.94
2023-06-18T17:45:31.005Z,97267.06
2023-06-18T17:47:59.166Z,97286.91
2023-06-18T17:50:26.709Z,97272.22
2023-06-18T17:52:54.818Z,97263.81
2023-06-18T17:55:22.832Z,97269.47
2023-06-18T17:57:50.462Z,97267.31
2023-06-18T18:00:18.321Z,97264.56
2023-06-18T18:02:46.256Z,97266.56
2023-06-18T18:05:14.353Z,97281.41
2023-06-18T18:07:41.972Z,97291.59
2023-06-18T18:10:09.850Z,97286.97
2023-06-18T18:12:38.079Z,97305.22
2023-06-18T18:15:08.876Z,97308.94
2023-06-18T18:17:36.268Z,97322.31
2023-06-18T18:20:04.194Z,97331.84
2023-06-18T18:22:31.563Z,97326.69
2023-06-18T18:24:59.409Z,97325.06
2023-06-18T18:27:26.847Z,97329.78
2023-06-18T18:29:54.505Z,97314.75
2023-06-18T18:32:22.874Z,97312.13
2023-06-18T18:34:50.787Z,97304.25
2023-06-18T18:37:18.444Z,97306.53
2023-06-18T18:39:46.173Z,97300.78
2023-06-18T18:42:14.327Z,97283.13
2023-06-18T18:44:42.619Z,97269.47
2023-06-18T18:47:10.110Z,97276.06
2023-06-18T18:49:37.865Z,97284.59
2023-06-18T18:52:05.594Z,97285.88
2023-06-18T18:54:33.432Z,97312.88
2023-06-18T18:57:01.114Z,97301.59
2023-06-18T18:59:28.291Z,97305.47
2023-06-18T19:01:56.533Z,97295.94
2023-06-18T19:04:24.466Z,97308.84
2023-06-18T19:06:51.771Z,97317.56
2023-06-18T19:09:20.054Z,97329.03
2023-06-18T19:11:48.471Z,97332.41
2023-06-18T19:14:16.483Z,97320.94
2023-06-18T19:16:44.397Z,97335.00
2023-06-18T19:19:11.684Z,97331.28
2023-06-18T19:21:39.693Z,97312.41
2023-06-18T19:24:07.469Z,97317.09
2023-06-18T19:26:35.162Z,97313.03
2023-06-18T19:29:03.595Z,97318.53
2023-06-18T19:31:31.691Z,97310.47
2023-06-18T19:33:59.437Z,97332.41
2023-06-18T19:36:26.728Z,97313.06
2023-06-18T19:38:54.298Z,97317.72
2023-06-18T19:41:22.272Z,97308.22
2023-06-18T19:43:49.697Z,97319.00
2023-06-18T19:46:17.187Z,97332.66
2023-06-18T19:48:44.995Z,97327.31
2023-06-18T19:51:14.134Z,97326.78
2023-06-18T19:53:43.951Z,97316.75
2023-06-18T19:56:12.778Z,97324.16
2023-06-18T19:58:40.459Z,97329.97
2023-06-18T20:01:08.012Z,97323.84
2023-06-18T20:03:38.163Z,97332.13
2023-06-18T20:06:06.233Z,97327.47
2023-06-18T20:08:33.881Z,97330.81
2023-06-18T20:11:01.539Z,97333.88
2023-06-18T20:13:29.211Z,97342.75
2023-06-18T20:15:57.728Z,97340.13
2023-06-18T20:18:25.526Z,97340.44
2023-06-18T20:20:54.727Z,97347.16
2023-06-18T20:23:22.165Z,97348.28
2023-06-18T20:25:49.494Z,97337.91
2023-06-18T20:28:16.882Z,97350.63
2023-06-18T20:30:44.952Z,97349.00
2023-06-18T20:33:13.122Z,97347.88
2023-06-18T20:35:40.334Z,97348.03
2023-06-18T20:38:08.308Z,97348.34
2023-06-18T20:40:35.884Z,97358.50
2023-06-18T20:43:03.783Z,97362.03
2023-06-18T20:45:31.223Z,97360.81
2023-06-18T20:48:00.408Z,97350.56
2023-06-18T20:50:28.224Z,97365.69
2023-06-18T20:52:56.231Z,97360.38
2023-06-18T20:55:23.578Z,97360.78
2023-06-18T20:57:50.910Z,97373.16
2023-06-18T21:00:18.731Z,97371.06
2023-06-18T21:02:46.830Z,97360.34
2023-06-18T21:05:14.808Z,97369.84
2023-06-18T21:07:42.085Z,97366.94
2023-06-18T21:10:12.472Z,97367.38
2023-06-18T21:12:39.903Z,97363.72
2023-06-18T21:15:08.195Z,97356.13
2023-06-18T21:17:36.237Z,97358.22
2023-06-18T21:20:04.155Z,97352.59
2023-06-18T21:22:31.807Z,97366.06
2023-06-18T21:24:59.471Z,97359.91
2023-06-18T21:27:26.830Z,97358.31
2023-06-18T21:29:55.194Z,97357.03
2023-06-18T21:32:23.082Z,97369.44
2023-06-18T21:34:50.631Z,97375.03
2023-06-18T21:37:18.287Z,97364.84
2023-06-18T21:39:49.239Z,97385.47
2023-06-18T21:42:16.826Z,97393.06
2023-06-18T21:44:44.617Z,97382.56
2023-06-18T21:47:12.901Z,97383.75
2023-06-18T21:49:40.487Z,97398.22
2023-06-18T21:52:08.106Z,97392.69
2023-06-18T21:54:35.375Z,97399.34
2023-06-18T21:57:03.496Z,97398.47
2023-06-18T21:59:31.287Z,97401.69
2023-06-18T22:01:59.547Z,97398.94
2023-06-18T22:04:27.130Z,97406.53
2023-06-18T22:06:54.989Z,97404.72
2023-06-18T22:09:23.967Z,97402.88
2023-06-18T22:11:51.700Z,97400.09
2023-06-18T22:14:19.219Z,97408.16
2023-06-18T22:16:46.670Z,97387.09
2023-06-18T22:19:14.848Z,97394.19
2023-06-18T22:21:42.492Z,97390.44
2023-06-18T22:24:11.791Z,97396.91
2023-06-18T22:26:39.424Z,97399.16
2023-06-18T22:29:06.584Z,97398.72
2023-06-18T22:31:34.454Z,97412.06
2023-06-18T22:34:01.997Z,97397.38
2023-06-18T22:36:29.685Z,97407.34
2023-06-18T22:38:57.447Z,97405.50
2023-06-18T22:41:25.273Z,97413.97
2023-06-18T22:43:53.085Z,97413.03
2023-06-18T22:46:22.393Z,97423.19
2023-06-18T22:48:49.617Z,97423.34
2023-06-18T22:51:17.538Z,97427.94
2023-06-18T22:53:45.127Z,97420.03
2023-06-18T22:56:13.383Z,97420.28
2023-06-18T22:58:41.536Z,97412.94
2023-06-18T23:01:10.118Z,97414.75
2023-06-18T23:03:38.018Z,97410.69
2023-06-18T23:06:05.653Z,97426.81
2023-06-18T23:08:33.070Z,97432.25
2023-06-18T23:11:01.704Z,97423.63
2023-06-18T23:13:29.190Z,97427.94
2023-06-18T23:15:57.090Z,97440.34
2023-06-18T23:18:27.521Z,97427.75
2023-06-18T23:20:57.864Z,97432.91
2023-06-18T23:23:30.789Z,97419.25
2023-06-18T23:25:58.562Z,97429.78
2023-06-18T23:28:26.328Z,97432.31
2023-06-18T23:30:54.347Z,97426.47
2023-06-18T23:33:22.481Z,97429.28
2023-06-18T23:35:50.251Z,97425.00
2023-06-18T23:38:17.793Z,97416.22
2023-06-18T23:40:45.346Z,97421.81
2023-06-18T23:43:12.854Z,97429.16
2023-06-18T23:45:40.254Z,97423.50
2023-06-18T23:48:07.984Z,97424.06
2023-06-18T23:50:36.087Z,97419.38
2023-06-18T23:53:03.801Z,97434.28
2023-06-18T23:55:31.791Z,97418.78
2023-06-18T23:57:59.066Z,97434.09
